Terminal Aerodrome Forecast
Issued by NWS

Home | Current Version | Previous Version | Text Only | Print | Product List | Glossary On
Versions: 1 2 3 4 5 6 7 8 9 10 11 12 13 14 15 16 17 18 19 20 21 22 23
000
FTUS46 KLOX 201319 AAA
TAFVNY
TAF AMD
KVNY 201319Z 2013/2112 VRB03KT 6SM BR BKN020
     FM201700 14010KT P6SM SCT025
     FM210400 VRB03KT P6SM OVC020=

USA.gov is the U.S. government's official web portal to all federal, state and local government web resources and services.